Time;durP1;ratioP1;P1;durP2;ratioP2;P2;SDS_P1;SDS_P2;PMS_P1;PMS_P2;Temp;Humidity;BMP_temperature;BMP_pressure;BME280_temperature;BME280_humidity;BME280_pressure;Samples;Min_cycle;Max_cycle;Signal;HPM_P1;HPM_P2
2023/05/27 00:02:25;;;;;;;7.83;3.40;;;15.90;94.10;;;;;;5032366;28;20296;-71
2023/05/27 00:04:51;;;;;;;4.90;2.50;;;15.80;94.20;;;;;;5009790;28;20229;-72
2023/05/27 00:07:17;;;;;;;5.07;2.60;;;15.80;94.20;;;;;;5021072;28;20501;-71
2023/05/27 00:09:43;;;;;;;4.87;2.00;;;15.80;94.10;;;;;;5033943;28;20231;-71
2023/05/27 00:12:08;;;;;;;4.60;1.97;;;15.80;94.30;;;;;;5030936;28;20206;-72
2023/05/27 00:14:34;;;;;;;4.27;2.30;;;15.80;94.20;;;;;;5031317;28;20224;-72
2023/05/27 00:17:01;;;;;;;5.17;2.10;;;15.90;94.40;;;;;;5030954;28;20240;-72
2023/05/27 00:19:29;;;;;;;6.13;3.37;;;15.80;94.20;;;;;;5022794;28;20448;-72
2023/05/27 00:21:55;;;;;;;4.33;3.10;;;15.70;94.60;;;;;;5033992;28;20431;-72
2023/05/27 00:24:21;;;;;;;3.50;2.23;;;15.70;94.30;;;;;;5007711;28;20452;-72
2023/05/27 00:26:47;;;;;;;6.43;2.63;;;15.70;94.20;;;;;;5023263;28;20437;-72
2023/05/27 00:29:13;;;;;;;8.97;2.57;;;15.70;94.50;;;;;;5029166;28;20451;-72
2023/05/27 00:31:39;;;;;;;2.93;2.60;;;15.70;94.20;;;;;;5031954;28;20455;-73
2023/05/27 00:34:05;;;;;;;6.57;3.70;;;15.70;94.20;;;;;;5026118;28;20467;-72
2023/05/27 00:36:33;;;;;;;7.53;2.80;;;15.70;94.10;;;;;;4999414;28;20272;-72
2023/05/27 00:39:00;;;;;;;7.07;2.37;;;15.60;94.20;;;;;;5022859;28;20272;-72
2023/05/27 00:41:26;;;;;;;9.03;2.93;;;15.60;94.30;;;;;;5029386;28;20452;-72
2023/05/27 00:43:53;;;;;;;5.70;2.70;;;15.60;94.40;;;;;;5010360;28;20448;-72
2023/05/27 00:46:19;;;;;;;6.13;2.87;;;15.50;94.20;;;;;;5032037;28;20275;-72
2023/05/27 00:48:46;;;;;;;4.73;2.60;;;15.40;94.20;;;;;;5034567;28;20452;-71
2023/05/27 00:51:11;;;;;;;11.17;2.70;;;15.40;94.40;;;;;;5035567;28;20682;-72
2023/05/27 00:53:43;;;;;;;2.80;2.10;;;15.40;94.40;;;;;;5018252;28;20491;-71
2023/05/27 00:56:15;;;;;;;4.83;2.83;;;15.40;94.30;;;;;;5037578;28;20217;-71
2023/05/27 00:58:43;;;;;;;6.17;2.43;;;15.50;94.30;;;;;;5026714;28;20459;-72
2023/05/27 01:01:09;;;;;;;6.13;2.60;;;15.50;94.50;;;;;;5009680;28;20456;-72
2023/05/27 01:03:35;;;;;;;3.40;2.20;;;15.60;94.50;;;;;;5010606;28;20463;-72
2023/05/27 01:06:28;;;;;;;3.73;1.90;;;15.50;94.80;;;;;;5007619;28;20443;-72
2023/05/27 01:08:59;;;;;;;7.30;2.57;;;15.50;94.40;;;;;;5027037;28;20221;-70
2023/05/27 01:11:35;;;;;;;4.77;2.27;;;15.50;94.50;;;;;;5022567;28;20487;-71
2023/05/27 01:14:07;;;;;;;4.53;2.50;;;15.40;94.50;;;;;;5009039;28;20505;-71
2023/05/27 01:16:35;;;;;;;7.30;2.50;;;15.40;94.50;;;;;;5031415;28;20978;-70
2023/05/27 01:19:04;;;;;;;6.23;2.27;;;15.40;94.60;;;;;;5015175;28;20447;-71
2023/05/27 01:21:30;;;;;;;3.10;2.30;;;15.40;94.50;;;;;;5031438;28;20455;-71
2023/05/27 01:24:03;;;;;;;8.00;2.60;;;15.30;94.40;;;;;;5014392;28;20491;-70
2023/05/27 01:26:29;;;;;;;4.13;2.50;;;15.30;94.50;;;;;;5026969;28;20530;-71
2023/05/27 01:28:55;;;;;;;7.10;3.10;;;15.30;94.60;;;;;;5020345;28;20547;-70
2023/05/27 01:31:47;;;;;;;5.40;2.60;;;15.30;94.60;;;;;;5017272;28;20221;-71
2023/05/27 01:34:18;;;;;;;6.80;2.40;;;15.30;94.70;;;;;;5030770;28;20312;-69
2023/05/27 01:36:48;;;;;;;3.30;2.30;;;15.30;94.60;;;;;;5011085;28;20510;-70
2023/05/27 01:39:15;;;;;;;4.20;2.50;;;15.30;94.40;;;;;;5014876;28;20531;-70
2023/05/27 01:41:42;;;;;;;3.43;2.30;;;15.20;94.50;;;;;;5017127;28;20797;-71
2023/05/27 01:44:16;;;;;;;8.03;2.43;;;15.30;94.60;;;;;;5005369;28;20487;-71
2023/05/27 01:46:43;;;;;;;5.23;2.93;;;15.30;94.70;;;;;;5010428;28;20981;-70
2023/05/27 01:49:09;;;;;;;6.10;2.83;;;15.30;94.60;;;;;;5018286;28;20477;-70
2023/05/27 01:51:36;;;;;;;5.40;2.10;;;15.30;94.60;;;;;;5027749;28;20546;-71
2023/05/27 01:54:02;;;;;;;4.60;1.90;;;15.20;94.50;;;;;;5007454;28;20601;-71
2023/05/27 01:56:29;;;;;;;3.37;2.20;;;15.20;94.60;;;;;;5013168;28;20275;-71
2023/05/27 01:58:55;;;;;;;4.80;2.83;;;15.20;94.60;;;;;;5029321;28;20464;-71
2023/05/27 02:01:23;;;;;;;7.10;2.60;;;15.20;94.50;;;;;;5026297;28;21005;-70
2023/05/27 02:03:51;;;;;;;6.00;2.60;;;15.20;94.60;;;;;;5052575;28;20458;-71
2023/05/27 02:06:17;;;;;;;5.93;2.77;;;15.10;94.50;;;;;;5015570;28;20463;-70
2023/05/27 02:08:42;;;;;;;3.90;2.30;;;15.10;94.50;;;;;;5027119;28;20244;-70
2023/05/27 02:11:09;;;;;;;6.13;2.30;;;15.10;94.60;;;;;;5028226;28;20217;-70
2023/05/27 02:13:36;;;;;;;4.73;2.53;;;15.20;94.50;;;;;;5014378;28;20799;-71
2023/05/27 02:16:02;;;;;;;6.13;2.80;;;15.20;94.50;;;;;;5006165;28;20205;-71
2023/05/27 02:18:27;;;;;;;3.67;2.30;;;15.20;94.50;;;;;;5025837;28;20467;-70
2023/05/27 02:20:53;;;;;;;3.80;2.40;;;15.20;94.40;;;;;;5008434;28;20219;-71
2023/05/27 02:23:19;;;;;;;6.17;2.27;;;15.20;94.40;;;;;;5027011;28;20212;-71
2023/05/27 02:25:45;;;;;;;9.80;2.20;;;15.20;94.40;;;;;;5012908;28;20229;-71
2023/05/27 02:28:10;;;;;;;6.70;2.50;;;15.20;94.20;;;;;;5004718;28;20229;-71
2023/05/27 02:30:37;;;;;;;5.10;2.80;;;15.20;94.30;;;;;;5018942;28;20220;-71
2023/05/27 02:33:03;;;;;;;7.03;2.07;;;15.20;94.50;;;;;;5018360;28;20730;-71
2023/05/27 02:35:29;;;;;;;3.73;2.00;;;15.10;94.40;;;;;;5034951;28;20451;-71
2023/05/27 02:37:55;;;;;;;8.20;2.60;;;15.10;94.30;;;;;;5029274;28;20758;-70
2023/05/27 02:40:28;;;;;;;3.20;2.17;;;15.10;94.50;;;;;;5032536;28;20304;-70
2023/05/27 02:42:58;;;;;;;4.60;2.07;;;15.00;94.50;;;;;;5019758;28;21030;-71
2023/05/27 02:45:25;;;;;;;3.00;2.07;;;14.90;94.40;;;;;;5015590;28;20471;-71
2023/05/27 02:47:51;;;;;;;2.93;2.07;;;14.90;94.50;;;;;;5017038;28;20507;-71
2023/05/27 02:50:16;;;;;;;7.20;2.53;;;14.90;94.40;;;;;;5015602;28;20468;-72
2023/05/27 02:52:42;;;;;;;6.07;2.50;;;14.90;94.40;;;;;;5028589;28;20573;-71
2023/05/27 02:55:08;;;;;;;7.47;2.47;;;14.70;94.30;;;;;;5034636;28;20481;-72
2023/05/27 02:57:35;;;;;;;2.93;1.67;;;14.70;94.40;;;;;;5031925;28;20714;-71
2023/05/27 03:00:01;;;;;;;5.70;2.37;;;14.60;94.40;;;;;;5032909;28;20466;-69
2023/05/27 03:02:26;;;;;;;4.90;2.20;;;14.60;94.30;;;;;;5025211;28;20436;-70
2023/05/27 03:04:55;;;;;;;6.77;2.47;;;14.50;94.30;;;;;;5017049;28;20478;-71
2023/05/27 03:07:21;;;;;;;3.60;2.10;;;14.50;94.40;;;;;;5014151;28;20460;-71
2023/05/27 03:09:46;;;;;;;7.30;2.77;;;14.60;94.40;;;;;;5044725;28;20435;-72
2023/05/27 03:12:12;;;;;;;8.10;2.53;;;14.60;94.40;;;;;;5032204;28;20217;-71
2023/05/27 03:14:38;;;;;;;3.97;2.30;;;14.60;94.40;;;;;;5018756;28;20201;-71
2023/05/27 03:17:04;;;;;;;2.73;2.03;;;14.60;94.40;;;;;;5011136;28;20216;-71
2023/05/27 03:19:30;;;;;;;7.87;2.53;;;14.50;94.40;;;;;;5017109;28;20222;-70
2023/05/27 03:21:56;;;;;;;7.20;1.93;;;14.60;94.50;;;;;;5018846;28;20446;-71
2023/05/27 03:24:24;;;;;;;8.10;2.47;;;14.60;94.40;;;;;;5009072;28;20242;-71
2023/05/27 03:26:51;;;;;;;1.90;1.70;;;14.60;94.40;;;;;;5012350;28;21071;-72
2023/05/27 03:29:17;;;;;;;5.40;2.03;;;14.60;94.20;;;;;;5020702;28;20537;-71
2023/05/27 03:31:43;;;;;;;5.57;1.90;;;14.70;94.20;;;;;;5030372;28;20557;-70
2023/05/27 03:34:13;;;;;;;5.77;2.57;;;14.60;94.20;;;;;;5038771;28;20720;-70
2023/05/27 03:36:40;;;;;;;8.43;2.40;;;14.70;94.20;;;;;;5026426;28;21055;-69
2023/05/27 03:39:06;;;;;;;7.10;2.30;;;14.70;94.20;;;;;;5038401;28;20542;-70
2023/05/27 03:41:34;;;;;;;6.10;2.20;;;14.70;94.10;;;;;;5023382;28;20468;-71
2023/05/27 03:44:00;;;;;;;3.90;2.03;;;14.60;94.60;;;;;;5028207;28;20456;-69
2023/05/27 03:46:26;;;;;;;5.30;2.20;;;14.70;94.20;;;;;;5025745;28;20482;-71
2023/05/27 03:48:52;;;;;;;10.90;3.53;;;14.70;94.30;;;;;;5017163;28;20220;-70
2023/05/27 03:51:18;;;;;;;4.10;2.37;;;14.60;94.20;;;;;;5016481;28;20232;-71
2023/05/27 03:53:44;;;;;;;6.63;3.60;;;14.60;94.20;;;;;;5015564;28;20622;-71
2023/05/27 03:56:10;;;;;;;8.53;2.77;;;14.60;94.30;;;;;;5010504;28;20464;-70
2023/05/27 03:58:35;;;;;;;2.27;1.90;;;14.50;94.40;;;;;;5015826;28;20248;-71
2023/05/27 04:01:01;;;;;;;5.20;2.37;;;14.50;94.40;;;;;;5015043;28;20224;-70
2023/05/27 04:03:28;;;;;;;15.43;3.50;;;14.50;94.40;;;;;;5019721;28;20217;-71
2023/05/27 04:05:56;;;;;;;6.17;2.80;;;14.50;94.60;;;;;;5004055;28;20490;-71
2023/05/27 04:08:22;;;;;;;4.90;2.17;;;14.30;94.60;;;;;;5003451;28;20472;-71
2023/05/27 04:10:48;;;;;;;8.30;3.27;;;14.30;94.60;;;;;;5006143;28;20448;-70
2023/05/27 04:13:14;;;;;;;8.47;2.50;;;14.30;94.70;;;;;;5029347;28;21027;-69
2023/05/27 04:15:41;;;;;;;5.83;2.73;;;14.20;94.60;;;;;;5017500;28;20535;-70
2023/05/27 04:18:06;;;;;;;6.80;2.73;;;14.20;94.80;;;;;;5012743;28;20522;-71
2023/05/27 04:20:40;;;;;;;4.77;2.43;;;14.10;94.70;;;;;;5021734;28;21048;-70
2023/05/27 04:23:10;;;;;;;3.77;2.10;;;14.10;94.90;;;;;;5027964;28;20474;-70
2023/05/27 04:25:36;;;;;;;6.27;2.73;;;14.10;94.70;;;;;;5029987;28;20455;-71
2023/05/27 04:28:05;;;;;;;6.37;2.27;;;14.10;94.90;;;;;;5028701;28;20457;-69
2023/05/27 04:30:32;;;;;;;3.13;2.40;;;14.10;94.90;;;;;;5001472;28;20464;-70
2023/05/27 04:33:00;;;;;;;2.50;2.30;;;14.20;94.90;;;;;;5022140;28;20471;-69
2023/05/27 04:35:26;;;;;;;2.57;1.63;;;14.20;95.00;;;;;;5009187;28;20530;-73
2023/05/27 04:37:53;;;;;;;4.70;2.40;;;14.20;94.90;;;;;;5016687;28;20456;-70
2023/05/27 04:40:19;;;;;;;2.93;2.20;;;14.20;95.00;;;;;;5020848;28;20499;-71
2023/05/27 04:43:03;;;;;;;5.83;2.67;;;14.20;95.00;;;;;;5024839;28;20470;-69
2023/05/27 04:45:29;;;;;;;5.63;2.30;;;14.20;94.90;;;;;;5012464;28;20452;-71
2023/05/27 04:47:57;;;;;;;5.97;2.20;;;14.30;94.90;;;;;;5009294;28;20235;-70
2023/05/27 04:50:23;;;;;;;11.10;2.83;;;14.30;95.00;;;;;;5043945;28;20534;-71
2023/05/27 04:52:49;;;;;;;5.83;2.63;;;14.30;95.00;;;;;;5010362;28;20522;-71
2023/05/27 04:55:16;;;;;;;9.43;2.50;;;14.30;95.00;;;;;;5031202;28;20471;-71
2023/05/27 04:57:41;;;;;;;5.13;2.13;;;14.30;95.10;;;;;;5034019;28;20962;-70
2023/05/27 05:02:39;;;;;;;3.77;2.33;;;14.30;95.10;;;;;;5030073;28;20205;-70
2023/05/27 05:05:10;;;;;;;4.50;2.40;;;14.30;95.30;;;;;;5023894;28;20452;-71
2023/05/27 05:07:40;;;;;;;8.13;2.60;;;14.20;95.20;;;;;;5009228;28;20554;-70
2023/05/27 05:10:10;;;;;;;7.10;2.50;;;14.30;95.60;;;;;;5028281;28;20988;-71
2023/05/27 05:12:45;;;;;;;10.40;2.73;;;14.30;95.60;;;;;;5020477;28;20459;-71
2023/05/27 05:15:10;;;;;;;2.10;1.90;;;14.30;95.40;;;;;;5015084;28;20447;-71
2023/05/27 05:17:36;;;;;;;7.60;2.97;;;14.30;95.60;;;;;;5006003;28;20740;-70
2023/05/27 05:20:03;;;;;;;9.17;2.93;;;14.40;95.80;;;;;;5019584;28;20217;-71
2023/05/27 05:22:29;;;;;;;3.30;2.40;;;14.40;95.70;;;;;;5009530;28;20210;-69
2023/05/27 05:24:55;;;;;;;3.80;2.10;;;14.40;95.60;;;;;;5028308;28;20448;-70
2023/05/27 05:27:29;;;;;;;6.60;2.60;;;14.50;95.90;;;;;;5012809;28;20217;-70
2023/05/27 05:29:55;;;;;;;4.50;2.67;;;14.50;95.90;;;;;;5003925;28;20456;-70
2023/05/27 05:32:21;;;;;;;5.20;2.40;;;14.50;95.70;;;;;;5025214;28;20213;-71
2023/05/27 05:34:46;;;;;;;3.13;2.27;;;14.50;95.70;;;;;;5002836;28;20274;-70
2023/05/27 05:37:12;;;;;;;7.00;3.30;;;14.60;95.70;;;;;;5017704;28;20266;-70
2023/05/27 05:39:42;;;;;;;5.23;2.30;;;14.60;95.60;;;;;;5028535;28;20276;-71
2023/05/27 05:42:08;;;;;;;4.87;2.33;;;14.60;95.70;;;;;;5019695;28;20452;-69
2023/05/27 05:44:34;;;;;;;6.37;2.80;;;14.60;95.60;;;;;;5005353;28;20457;-70
2023/05/27 05:47:00;;;;;;;7.43;2.23;;;14.70;95.90;;;;;;5020093;28;20239;-70
2023/05/27 05:49:26;;;;;;;3.50;2.10;;;14.70;95.80;;;;;;5014543;28;20208;-72
2023/05/27 05:51:52;;;;;;;5.50;2.67;;;14.80;95.80;;;;;;5029817;28;20463;-70
2023/05/27 05:54:17;;;;;;;7.13;2.73;;;14.80;95.60;;;;;;5015840;28;20305;-68
2023/05/27 05:56:47;;;;;;;9.63;2.23;;;14.80;95.50;;;;;;5010083;28;20221;-71
2023/05/27 05:59:14;;;;;;;5.23;3.20;;;14.80;95.50;;;;;;5028565;28;20462;-71
2023/05/27 06:01:40;;;;;;;9.73;3.10;;;14.80;95.60;;;;;;5028504;28;20463;-70
2023/05/27 06:04:06;;;;;;;5.20;3.07;;;14.90;95.60;;;;;;5032280;28;20307;-70
2023/05/27 06:06:36;;;;;;;2.53;2.30;;;14.90;95.60;;;;;;5008158;28;20220;-69
2023/05/27 06:09:25;;;;;;;5.40;2.37;;;14.90;95.70;;;;;;5022068;28;20615;-70
2023/05/27 06:11:54;;;;;;;3.00;2.60;;;14.90;95.60;;;;;;5031383;28;20475;-70
2023/05/27 06:14:22;;;;;;;3.53;2.20;;;15.00;95.80;;;;;;5019342;28;20463;-70
2023/05/27 06:16:48;;;;;;;4.73;2.37;;;15.10;95.80;;;;;;5023933;28;20454;-70
2023/05/27 06:19:14;;;;;;;6.50;2.40;;;15.20;96.10;;;;;;5012192;28;20529;-71
2023/05/27 06:21:41;;;;;;;4.77;2.40;;;15.20;95.90;;;;;;5015639;28;20472;-70
2023/05/27 06:24:36;;;;;;;5.43;3.07;;;15.30;96.20;;;;;;5019398;28;20223;-70
2023/05/27 06:27:17;;;;;;;4.43;2.43;;;15.40;96.20;;;;;;5011852;28;20464;-70
2023/05/27 06:29:44;;;;;;;4.10;2.50;;;15.50;96.30;;;;;;5010718;28;20499;-70
2023/05/27 06:32:10;;;;;;;6.13;3.70;;;15.50;96.10;;;;;;5020822;28;20248;-69
2023/05/27 06:34:37;;;;;;;4.13;2.40;;;15.50;95.90;;;;;;5004719;28;20508;-70
2023/05/27 06:37:03;;;;;;;6.57;2.93;;;15.60;96.00;;;;;;5022383;28;20470;-70
2023/05/27 06:39:29;;;;;;;4.50;2.87;;;15.70;95.90;;;;;;5016440;28;20462;-69
2023/05/27 06:41:55;;;;;;;10.90;3.70;;;15.70;96.00;;;;;;5004331;28;20996;-69
2023/05/27 06:44:53;;;;;;;11.47;3.60;;;15.80;95.90;;;;;;4994973;28;20459;-70
2023/05/27 06:47:22;;;;;;;9.60;4.30;;;15.90;95.80;;;;;;5011803;28;20470;-70
2023/05/27 06:49:49;;;;;;;6.13;4.07;;;15.90;95.80;;;;;;5029490;28;20451;-70
2023/05/27 06:52:15;;;;;;;5.60;2.70;;;15.90;95.80;;;;;;5036467;28;20505;-71
2023/05/27 06:55:00;;;;;;;7.93;3.77;;;16.00;95.80;;;;;;5043869;28;20271;-71
2023/05/27 06:57:44;;;;;;;9.87;4.03;;;16.00;95.60;;;;;;5028413;28;20635;-70
2023/05/27 07:00:16;;;;;;;10.03;4.17;;;16.20;96.30;;;;;;5010177;28;20506;-69
2023/05/27 07:02:54;;;;;;;6.70;3.57;;;16.20;96.00;;;;;;5038465;28;20533;-71
2023/05/27 07:05:20;;;;;;;7.20;3.53;;;16.20;96.30;;;;;;5028510;28;20585;-71
2023/05/27 07:07:46;;;;;;;5.00;3.20;;;16.30;96.00;;;;;;5032329;28;22044;-70
2023/05/27 07:10:12;;;;;;;10.20;3.93;;;16.30;96.20;;;;;;5037319;28;20212;-69
2023/05/27 07:12:38;;;;;;;5.37;2.80;;;16.50;96.00;;;;;;5029133;28;20448;-71
2023/05/27 07:15:22;;;;;;;9.77;3.87;;;16.50;96.30;;;;;;5034769;28;20726;-72
2023/05/27 07:17:48;;;;;;;6.47;3.23;;;16.70;95.80;;;;;;5019784;28;20454;-71
2023/05/27 07:20:14;;;;;;;7.40;3.37;;;16.70;96.00;;;;;;5032307;28;20217;-70
2023/05/27 07:22:40;;;;;;;11.77;3.20;;;16.70;95.70;;;;;;5033549;28;20895;-71
2023/05/27 07:25:06;;;;;;;4.00;2.70;;;16.70;95.70;;;;;;5016383;28;20216;-70
2023/05/27 07:27:35;;;;;;;5.13;3.07;;;16.80;96.10;;;;;;5022998;28;20467;-71
2023/05/27 07:30:01;;;;;;;3.47;2.20;;;16.70;95.70;;;;;;5033151;28;20502;-71
2023/05/27 07:32:36;;;;;;;5.60;4.00;;;16.80;95.40;;;;;;5024015;28;20208;-73
2023/05/27 07:35:02;;;;;;;7.87;3.37;;;16.90;95.60;;;;;;5039197;28;20443;-72
2023/05/27 07:37:28;;;;;;;7.27;2.97;;;16.80;95.50;;;;;;5029476;28;20709;-70
2023/05/27 07:39:53;;;;;;;6.20;2.87;;;16.90;95.80;;;;;;5007527;28;20272;-70
2023/05/27 07:42:19;;;;;;;4.43;3.00;;;17.00;95.50;;;;;;5029156;28;20460;-72
2023/05/27 07:44:45;;;;;;;6.07;3.27;;;17.20;95.80;;;;;;5023856;28;20237;-70
2023/05/27 07:47:11;;;;;;;5.17;3.10;;;17.30;95.40;;;;;;5019464;28;20247;-71
2023/05/27 07:49:36;;;;;;;6.10;3.47;;;17.30;95.30;;;;;;5022765;28;20305;-71
2023/05/27 07:52:21;;;;;;;3.63;3.03;;;17.40;95.60;;;;;;5030688;28;20710;-71
2023/05/27 07:54:48;;;;;;;9.93;3.50;;;17.40;95.10;;;;;;5009913;28;20448;-71
2023/05/27 07:57:16;;;;;;;10.40;4.03;;;17.50;95.30;;;;;;5009632;28;20559;-71
2023/05/27 07:59:43;;;;;;;10.33;3.10;;;17.60;95.10;;;;;;5016119;28;20460;-72
2023/05/27 08:02:09;;;;;;;3.53;2.80;;;17.60;95.10;;;;;;5046000;28;20539;-71
2023/05/27 08:04:37;;;;;;;6.23;2.43;;;17.60;95.10;;;;;;5014698;28;20476;-71
2023/05/27 08:07:17;;;;;;;5.80;2.97;;;17.70;95.00;;;;;;5026050;28;20460;-72
2023/05/27 08:09:58;;;;;;;7.90;3.33;;;17.70;95.00;;;;;;5014477;28;20984;-71
2023/05/27 08:12:44;;;;;;;5.87;3.20;;;17.70;94.90;;;;;;5024755;28;20993;-71
2023/05/27 08:15:17;;;;;;;7.43;2.50;;;17.90;94.90;;;;;;5012066;28;20460;-72
2023/05/27 08:17:59;;;;;;;9.13;2.67;;;18.00;94.80;;;;;;5019098;28;20470;-70
2023/05/27 08:20:49;;;;;;;4.80;2.93;;;18.20;94.70;;;;;;5029431;28;20443;-71
2023/05/27 08:23:28;;;;;;;6.10;2.87;;;18.00;94.70;;;;;;5012321;28;20464;-71
2023/05/27 08:26:16;;;;;;;5.07;3.43;;;18.10;94.90;;;;;;5010588;28;20458;-71
2023/05/27 08:28:54;;;;;;;6.27;2.87;;;18.20;94.80;;;;;;5011455;28;20459;-70
2023/05/27 08:31:53;;;;;;;3.40;2.70;;;18.00;94.80;;;;;;4994595;28;20471;-71
2023/05/27 08:34:19;;;;;;;9.80;4.43;;;18.30;94.70;;;;;;5035368;28;20522;-70
2023/05/27 08:36:44;;;;;;;7.00;3.10;;;18.40;94.80;;;;;;5007503;28;20527;-71
2023/05/27 08:39:12;;;;;;;4.37;2.80;;;18.40;94.70;;;;;;5007694;28;20458;-71
2023/05/27 08:41:45;;;;;;;11.40;3.70;;;18.60;94.60;;;;;;5011319;28;20645;-72
2023/05/27 08:44:11;;;;;;;7.47;3.33;;;18.70;94.50;;;;;;5013656;28;20468;-71
2023/05/27 08:46:37;;;;;;;5.80;3.10;;;18.50;94.40;;;;;;5008913;28;20595;-72
2023/05/27 08:49:03;;;;;;;8.70;3.73;;;18.50;94.60;;;;;;5003394;28;20663;-71
2023/05/27 08:51:30;;;;;;;7.47;3.33;;;18.70;94.60;;;;;;5010713;28;20558;-70
2023/05/27 08:53:56;;;;;;;3.80;2.43;;;18.70;94.60;;;;;;5015564;28;20543;-71
2023/05/27 08:56:23;;;;;;;5.10;3.27;;;18.80;94.50;;;;;;5013865;28;20213;-72
2023/05/27 08:58:53;;;;;;;4.10;2.70;;;18.90;94.40;;;;;;5026478;28;20227;-71
2023/05/27 09:01:21;;;;;;;3.37;2.57;;;18.90;94.80;;;;;;5024685;28;20452;-72
2023/05/27 09:03:47;;;;;;;5.87;3.70;;;19.00;94.70;;;;;;5020467;28;20965;-72
2023/05/27 09:06:14;;;;;;;3.80;2.30;;;19.00;94.70;;;;;;5025068;28;20543;-71
2023/05/27 09:08:39;;;;;;;5.17;2.33;;;18.90;94.90;;;;;;5028590;28;20906;-72
2023/05/27 09:11:07;;;;;;;4.97;3.80;;;18.90;94.60;;;;;;5008222;28;20232;-70
2023/05/27 09:13:33;;;;;;;4.73;3.13;;;19.20;95.10;;;;;;5008067;28;20217;-71
2023/05/27 09:16:00;;;;;;;4.60;3.30;;;19.50;94.60;;;;;;5001533;28;20461;-71
2023/05/27 09:18:30;;;;;;;4.27;3.87;;;19.70;94.30;;;;;;5024959;28;20547;-70
2023/05/27 09:20:57;;;;;;;10.20;3.97;;;19.60;94.20;;;;;;5002912;28;20532;-71
2023/05/27 09:23:22;;;;;;;6.57;2.90;;;19.50;94.70;;;;;;5033406;28;20530;-71
2023/05/27 09:25:49;;;;;;;5.17;3.27;;;19.60;94.40;;;;;;5014943;28;20456;-71
2023/05/27 09:28:22;;;;;;;4.30;3.10;;;19.70;94.20;;;;;;5022980;28;20248;-71
2023/05/27 09:30:52;;;;;;;4.53;2.97;;;19.80;94.70;;;;;;5023884;28;20529;-71
2023/05/27 09:33:25;;;;;;;9.90;3.97;;;20.00;94.60;;;;;;5019104;28;20474;-69
2023/05/27 09:35:51;;;;;;;7.20;2.83;;;20.30;94.50;;;;;;5033985;28;20452;-71
2023/05/27 09:38:16;;;;;;;3.80;2.50;;;20.40;94.20;;;;;;5032985;28;20524;-70
2023/05/27 09:40:44;;;;;;;5.20;2.70;;;20.50;94.30;;;;;;5032842;28;20209;-72
2023/05/27 09:43:14;;;;;;;6.40;2.70;;;20.20;94.20;;;;;;5034609;28;20228;-71
2023/05/27 09:45:41;;;;;;;6.30;4.03;;;20.30;94.20;;;;;;5019751;28;20474;-71
2023/05/27 09:48:07;;;;;;;11.10;3.40;;;20.50;94.20;;;;;;5030002;28;20464;-71
2023/05/27 09:50:34;;;;;;;6.63;3.63;;;20.50;93.80;;;;;;5020215;28;20516;-72
2023/05/27 09:53:01;;;;;;;5.97;2.90;;;20.50;94.00;;;;;;5014562;28;20459;-71
2023/05/27 09:55:29;;;;;;;4.83;2.93;;;20.60;94.00;;;;;;5017195;28;20445;-72
2023/05/27 09:57:55;;;;;;;5.00;2.73;;;20.70;93.80;;;;;;5028172;28;20538;-72
2023/05/27 10:00:21;;;;;;;5.97;3.37;;;20.40;93.80;;;;;;5026746;28;21021;-71
2023/05/27 10:02:48;;;;;;;7.80;3.10;;;20.80;93.90;;;;;;5033537;28;20676;-71
2023/05/27 10:05:16;;;;;;;8.13;3.53;;;20.70;94.00;;;;;;5033824;28;20220;-72
2023/05/27 10:07:43;;;;;;;7.57;5.00;;;20.90;93.80;;;;;;5058715;28;20467;-71
2023/05/27 10:10:16;;;;;;;5.73;3.07;;;20.90;93.80;;;;;;5036726;28;20456;-72
2023/05/27 10:12:44;;;;;;;7.60;2.90;;;21.10;93.70;;;;;;5037550;28;20594;-72
2023/05/27 10:15:20;;;;;;;3.73;2.70;;;21.00;93.90;;;;;;5025525;28;20455;-71
2023/05/27 10:17:53;;;;;;;8.83;3.30;;;21.20;93.60;;;;;;5034187;28;20815;-71
2023/05/27 10:20:36;;;;;;;4.83;3.10;;;21.20;93.70;;;;;;5048300;28;21005;-71
2023/05/27 10:23:30;;;;;;;3.50;3.10;;;20.90;93.70;;;;;;5035839;28;20439;-72
2023/05/27 10:26:07;;;;;;;5.70;3.33;;;20.90;93.90;;;;;;5020775;28;20435;-71
2023/05/27 10:28:41;;;;;;;5.50;3.50;;;20.90;93.70;;;;;;5020163;28;20460;-71
2023/05/27 10:31:14;;;;;;;9.00;3.90;;;21.00;93.80;;;;;;5033127;28;20484;-71
2023/05/27 10:33:47;;;;;;;5.13;3.00;;;21.50;93.50;;;;;;5036790;28;20456;-70
2023/05/27 10:36:17;;;;;;;3.67;2.90;;;21.50;93.30;;;;;;5037945;28;20489;-70
2023/05/27 10:38:54;;;;;;;7.57;3.27;;;21.70;93.30;;;;;;5032922;28;20490;-71
2023/05/27 10:41:20;;;;;;;6.00;3.47;;;21.80;93.10;;;;;;5036512;28;20456;-71
2023/05/27 10:43:56;;;;;;;9.90;3.10;;;21.90;92.90;;;;;;5012217;28;20482;-71
2023/05/27 10:46:21;;;;;;;5.80;2.90;;;21.80;93.00;;;;;;5039283;28;20513;-72
2023/05/27 10:48:47;;;;;;;9.23;3.60;;;21.70;92.90;;;;;;5039143;28;20491;-72
2023/05/27 10:51:13;;;;;;;5.27;2.90;;;22.00;93.00;;;;;;5010389;28;20765;-72
2023/05/27 10:53:41;;;;;;;6.37;3.87;;;22.10;93.00;;;;;;5028072;28;20256;-72
2023/05/27 10:56:12;;;;;;;4.57;2.97;;;22.10;93.00;;;;;;5018720;28;20274;-71
2023/05/27 10:58:42;;;;;;;8.10;3.73;;;21.60;93.20;;;;;;5034836;28;20530;-71
2023/05/27 11:01:14;;;;;;;5.60;3.60;;;21.90;93.10;;;;;;5012953;28;20517;-71
2023/05/27 11:03:49;;;;;;;7.33;3.70;;;22.20;92.80;;;;;;5012129;28;21013;-73
2023/05/27 11:06:16;;;;;;;4.57;3.07;;;22.10;93.00;;;;;;5032178;28;20458;-72
2023/05/27 11:08:43;;;;;;;6.50;4.37;;;21.90;93.10;;;;;;5028775;28;20837;-73
2023/05/27 11:11:10;;;;;;;7.50;3.70;;;22.40;92.70;;;;;;5010662;28;20467;-71
2023/05/27 11:13:44;;;;;;;8.50;3.53;;;22.80;92.40;;;;;;5008745;28;20861;-72
2023/05/27 11:16:10;;;;;;;4.53;3.10;;;22.60;92.50;;;;;;5018237;28;20542;-72
2023/05/27 11:18:40;;;;;;;4.93;3.00;;;22.20;92.50;;;;;;5032516;28;20467;-71
2023/05/27 11:21:07;;;;;;;5.70;3.50;;;22.10;92.50;;;;;;5037146;28;20475;-72
2023/05/27 11:23:46;;;;;;;6.10;3.57;;;22.10;92.80;;;;;;5020305;28;20452;-71
2023/05/27 11:26:25;;;;;;;4.80;3.20;;;22.20;92.80;;;;;;5014613;28;20474;-72
2023/05/27 11:28:54;;;;;;;4.67;3.40;;;22.40;92.70;;;;;;5012308;28;20537;-71
2023/05/27 11:31:26;;;;;;;9.57;4.23;;;22.60;92.60;;;;;;5013090;28;20549;-73
2023/05/27 11:33:52;;;;;;;7.27;3.40;;;22.90;92.70;;;;;;5014406;28;20535;-72
2023/05/27 11:36:19;;;;;;;4.80;3.47;;;22.60;92.50;;;;;;5048867;28;20917;-72
2023/05/27 11:38:52;;;;;;;5.33;3.73;;;22.40;92.10;;;;;;5020197;28;20214;-72
2023/05/27 11:41:22;;;;;;;11.57;3.87;;;22.10;92.40;;;;;;5033079;28;20471;-71
2023/05/27 11:43:49;;;;;;;6.80;3.83;;;22.10;92.40;;;;;;5044471;28;20464;-73
2023/05/27 11:46:15;;;;;;;6.40;3.60;;;22.40;92.20;;;;;;5014039;28;20476;-72
2023/05/27 11:48:41;;;;;;;6.07;3.27;;;22.50;92.40;;;;;;5027692;28;20559;-72
2023/05/27 11:51:07;;;;;;;5.37;3.27;;;22.60;92.00;;;;;;5027496;28;20464;-70
2023/05/27 11:53:34;;;;;;;4.33;3.40;;;22.70;92.20;;;;;;5028996;28;20613;-71
2023/05/27 11:56:00;;;;;;;6.93;3.40;;;23.00;91.40;;;;;;5033658;28;20319;-72
2023/05/27 11:58:25;;;;;;;3.77;2.97;;;23.20;91.20;;;;;;5033270;28;20628;-72
2023/05/27 12:00:52;;;;;;;10.53;3.63;;;23.60;91.50;;;;;;5035459;28;22003;-70
2023/05/27 12:03:17;;;;;;;4.20;3.43;;;23.20;91.60;;;;;;5011818;28;20296;-72
2023/05/27 12:05:43;;;;;;;10.17;3.47;;;23.10;92.20;;;;;;5032540;28;20690;-72
2023/05/27 12:08:09;;;;;;;9.53;4.13;;;23.40;91.50;;;;;;5011223;28;20591;-72
2023/05/27 12:10:34;;;;;;;5.70;3.73;;;23.70;91.20;;;;;;5025775;28;20590;-70
2023/05/27 12:13:04;;;;;;;8.47;3.93;;;23.30;91.10;;;;;;5032322;28;20212;-72
2023/05/27 12:15:31;;;;;;;6.70;3.23;;;23.00;91.20;;;;;;5025052;28;20223;-72
2023/05/27 12:17:57;;;;;;;7.27;3.30;;;23.10;91.30;;;;;;5025327;28;21233;-72
2023/05/27 12:20:27;;;;;;;6.77;3.77;;;23.30;90.70;;;;;;5004441;28;20538;-71
2023/05/27 12:22:53;;;;;;;5.43;3.73;;;23.50;90.90;;;;;;5007819;28;21060;-72
2023/05/27 12:25:19;;;;;;;8.43;3.53;;;23.60;91.20;;;;;;5029849;28;20478;-72
2023/05/27 12:27:45;;;;;;;9.50;3.63;;;23.10;91.50;;;;;;5024676;28;20476;-71
2023/05/27 12:30:12;;;;;;;5.93;3.43;;;23.30;92.00;;;;;;5026188;28;20219;-72
2023/05/27 12:32:38;;;;;;;8.33;2.93;;;23.50;91.30;;;;;;5005664;28;20217;-72
2023/05/27 12:35:05;;;;;;;5.10;3.60;;;23.20;91.10;;;;;;5013880;28;20460;-71
2023/05/27 12:37:31;;;;;;;6.87;3.30;;;23.40;90.70;;;;;;5021186;28;20458;-71
2023/05/27 12:39:57;;;;;;;3.70;3.10;;;23.60;90.50;;;;;;5026263;28;20947;-72
2023/05/27 12:42:23;;;;;;;5.50;4.10;;;23.70;90.60;;;;;;5037186;28;20593;-70
2023/05/27 12:44:48;;;;;;;6.67;3.43;;;23.30;90.80;;;;;;5024129;28;20223;-72
2023/05/27 12:47:14;;;;;;;5.73;3.00;;;23.10;91.10;;;;;;5024362;28;20216;-70
2023/05/27 12:49:41;;;;;;;5.77;3.70;;;23.00;91.20;;;;;;5024296;28;20220;-73
2023/05/27 12:52:07;;;;;;;6.43;3.40;;;22.90;91.20;;;;;;5030765;28;20733;-72
2023/05/27 12:54:33;;;;;;;4.80;3.13;;;23.00;90.70;;;;;;5015573;28;20542;-73
2023/05/27 12:56:58;;;;;;;4.77;3.93;;;23.50;90.30;;;;;;5039461;28;20948;-72